Impacts METAR Board
IDs:

KPHX - Phoenix/Sky Harbor, AZ, US

Updated at: 1300 UTC 07 Jul 2020
Potential Impact None Slight Moderate High
Time 07/01Z 07/02Z 07/03Z 07/04Z 07/05Z 07/06Z 07/07Z 07/08Z 07/09Z 07/10Z 07/11Z 07/12Z 07/13Z
Temp110 108 107 105 98 95 97 91 92 87 86 89 84
Dewpt40 38 35 37 40 41 39 37 34 38 36 36 39
Altim29.72 29.71 29.71 29.72 29.75 29.76 29.77 29.77 29.76 29.76 29.77 29.78 29.81
VIS10 10 10 10 10 10 10 10 10 10 10 10 10
CIG-- -- -- -- -- -- -- -- -- -- -- -- --
CoverFEWFEWFEWCLRCLRCLRCLRCLRCLRCLRCLRFEWFEW
FltCatVFRVFRVFRVFRVFRVFRVFRVFRVFRVFRVFRVFRVFR
WX--------------------------
WDir290300290280220230250240260250240320140
WSpd11 10 12 9 4 6 4 6 5 4 4 4 6
WGst-- 18 -- -- -- -- -- -- -- -- -- -- --
Raw hourly METARs
KPHX 070051Z 29011KT 10SM FEW100 FEW140 43/04 A2972 RMK AO2 SLP040 T04330044 $
KPHX 070151Z 30010G18KT 10SM FEW100 42/03 A2971 RMK AO2 SLP039 T04220033 $
KPHX 070251Z 29012KT 10SM FEW100 42/02 A2971 RMK AO2 SLP038 T04170017 55007 $
KPHX 070351Z 28009KT 10SM CLR 41/03 A2972 RMK AO2 SLP041 T04060028 $
KPHX 070451Z 22004KT 10SM CLR 37/04 A2975 RMK AO2 SLP050 T03670044 $
KPHX 070551Z 23006KT 10SM CLR 35/05 A2976 RMK AO2 SLP054 T03500050 10433 20350 53016 $
KPHX 070651Z 25004KT 10SM CLR 36/04 A2977 RMK AO2 SLP058 T03610039 404390283 $
KPHX 070751Z 24006KT 10SM CLR 33/03 A2977 RMK AO2 SLP057 T03280028 $
KPHX 070851Z 26005KT 10SM CLR 33/01 A2976 RMK AO2 SLP055 T03330011 50001 $
KPHX 070951Z 25004KT 10SM CLR 31/03 A2976 RMK AO2 SLP054 T03060033 $
KPHX 071051Z 24004KT 10SM CLR 30/02 A2977 RMK AO2 SLP057 T03000022 $
KPHX 071151Z 32004KT 10SM FEW150 FEW200 32/02 A2978 RMK AO2 SLP060 T03170022 10367 20294 53005 $
KPHX 071251Z 14006KT 10SM FEW100 FEW150 29/04 A2981 RMK AO2 SLP073 T02890039 $



Page loaded:  13:34 UTC  |   06:34 AM Pacific  |   07:34 AM Mountain  |   08:34 AM Central  |   09:34 AM Eastern

 

ADVISORIES

FORECASTS

FORECASTS

OBSERVATIONS

USER TOOLS

ABOUT US